Time;durP1;ratioP1;P1;durP2;ratioP2;P2;SDS_P1;SDS_P2;PMS_P1;PMS_P2;Temp;Humidity;BMP_temperature;BMP_pressure;BME280_temperature;BME280_humidity;BME280_pressure;Samples;Min_cycle;Max_cycle;Signal;HPM_P1;HPM_P2
2020/12/14 00:00:09;;;;;;;9.13;1.52;;;;;;;9.66;77.28;97706.31;5071170;28;20090;-51
2020/12/14 00:02:39;;;;;;;6.95;2.92;;;;;;;9.62;77.42;97705.59;5070313;28;20064;-48
2020/12/14 00:05:07;;;;;;;6.80;1.35;;;;;;;9.60;77.39;97704.44;5068232;28;20127;-52
2020/12/14 00:07:36;;;;;;;6.57;1.48;;;;;;;9.59;77.34;97700.09;5054533;28;20044;-52
2020/12/14 00:10:04;;;;;;;5.78;1.20;;;;;;;9.56;77.33;97711.97;5070523;28;20722;-48
2020/12/14 00:12:30;;;;;;;5.88;2.35;;;;;;;9.55;77.32;97711.22;5069781;28;20048;-47
2020/12/14 00:14:56;;;;;;;7.85;1.40;;;;;;;9.54;77.42;97708.84;5065962;28;20090;-48
2020/12/14 00:17:23;;;;;;;3.50;1.42;;;;;;;9.51;77.50;97704.94;5068852;28;20090;-54
2020/12/14 00:19:49;;;;;;;4.78;1.00;;;;;;;9.49;77.80;97703.78;5070382;28;20052;-52
2020/12/14 00:22:15;;;;;;;8.32;1.35;;;;;;;9.44;77.97;97718.03;5071564;28;20123;-49
2020/12/14 00:24:42;;;;;;;6.05;1.60;;;;;;;9.40;77.80;97709.00;5066706;28;20129;-50
2020/12/14 00:27:08;;;;;;;6.88;1.05;;;;;;;9.37;78.40;97718.13;5071750;28;20047;-51
2020/12/14 00:29:34;;;;;;;8.75;1.05;;;;;;;9.34;78.45;97705.91;5066613;28;20108;-51
2020/12/14 00:32:01;;;;;;;9.38;1.13;;;;;;;9.30;78.50;97709.88;5054946;28;20115;-49
2020/12/14 00:34:27;;;;;;;5.10;0.70;;;;;;;9.26;78.70;97711.91;5052772;28;20120;-51
2020/12/14 00:37:03;;;;;;;2.83;1.15;;;;;;;9.20;79.14;97711.56;5052702;28;20037;-50
2020/12/14 00:39:30;;;;;;;0.70;0.30;;;;;;;9.14;79.19;97716.75;5064973;28;20078;-50
2020/12/14 00:41:59;;;;;;;4.80;1.00;;;;;;;9.09;79.04;97713.66;5073109;28;20131;-52
2020/12/14 00:44:26;;;;;;;4.68;0.70;;;;;;;8.99;79.05;97729.13;5053808;28;20379;-48
2020/12/14 00:46:53;;;;;;;7.07;1.35;;;;;;;8.88;79.54;97735.91;5072685;28;20080;-51
2020/12/14 00:49:20;;;;;;;1.38;0.68;;;;;;;8.79;79.76;97730.09;5073277;28;20055;-47
2020/12/14 00:51:46;;;;;;;2.70;0.40;;;;;;;8.73;80.09;97723.44;5072883;28;20158;-48
2020/12/14 00:54:13;;;;;;;3.45;0.80;;;;;;;8.69;80.34;97726.22;5054540;28;20049;-51
2020/12/14 00:56:41;;;;;;;9.80;1.27;;;;;;;8.67;80.71;97734.09;5072871;28;20056;-48
2020/12/14 00:59:07;;;;;;;9.25;1.10;;;;;;;8.63;81.13;97729.81;5072784;28;20060;-52
2020/12/14 01:01:34;;;;;;;4.43;0.80;;;;;;;8.62;81.54;97737.31;5071636;28;20095;-49
2020/12/14 01:04:01;;;;;;;3.75;1.00;;;;;;;8.62;81.81;97736.50;5071819;28;20494;-51
2020/12/14 01:06:27;;;;;;;3.60;0.90;;;;;;;8.61;81.95;97745.97;5072689;28;20064;-53
2020/12/14 01:08:56;;;;;;;7.10;1.05;;;;;;;8.62;81.98;97748.34;5072725;28;20094;-49
2020/12/14 01:11:27;;;;;;;7.53;1.10;;;;;;;8.62;82.37;97750.31;5054477;28;20076;-53
2020/12/14 01:13:54;;;;;;;3.20;0.88;;;;;;;8.64;82.14;97756.97;5052346;28;20391;-50
2020/12/14 01:16:22;;;;;;;6.82;1.02;;;;;;;8.66;82.10;97762.88;5070884;28;20094;-54
2020/12/14 01:18:48;;;;;;;5.57;0.95;;;;;;;8.65;82.29;97764.06;5072824;28;20055;-50
2020/12/14 01:21:23;;;;;;;4.72;1.08;;;;;;;8.65;82.44;97772.34;5072200;28;20451;-52
2020/12/14 01:23:50;;;;;;;7.18;1.10;;;;;;;8.67;82.29;97769.97;5072205;28;20041;-52
2020/12/14 01:26:17;;;;;;;5.93;1.75;;;;;;;8.67;82.24;97780.19;5071371;28;20060;-50
2020/12/14 01:28:44;;;;;;;2.65;0.77;;;;;;;8.67;82.16;97778.22;5075522;28;20040;-51
2020/12/14 01:31:10;;;;;;;7.90;0.90;;;;;;;8.68;82.35;97774.31;5075206;28;20052;-52
2020/12/14 01:33:37;;;;;;;3.25;0.80;;;;;;;8.66;82.27;97776.66;5076056;28;20047;-52
2020/12/14 01:36:04;;;;;;;7.70;0.70;;;;;;;8.66;82.48;97784.94;5075637;28;20402;-50
2020/12/14 01:38:30;;;;;;;6.22;1.30;;;;;;;8.69;82.33;97786.09;5075867;28;20487;-52
2020/12/14 01:40:56;;;;;;;5.35;0.70;;;;;;;8.69;81.93;97795.16;5075659;28;20048;-54
2020/12/14 01:43:23;;;;;;;8.38;1.85;;;;;;;8.69;82.41;97788.84;5075194;28;20446;-52
2020/12/14 01:45:50;;;;;;;1.67;0.70;;;;;;;8.67;82.58;97782.97;5057893;28;20079;-50
2020/12/14 01:48:17;;;;;;;4.45;1.42;;;;;;;8.70;82.61;97793.97;5076161;28;20047;-51
2020/12/14 01:50:43;;;;;;;3.60;1.27;;;;;;;8.70;82.62;97790.44;5075535;28;20106;-49
2020/12/14 01:53:10;;;;;;;7.88;1.88;;;;;;;8.70;82.44;97799.50;5075430;28;20098;-51
2020/12/14 01:55:42;;;;;;;8.60;2.65;;;;;;;8.72;82.47;97791.59;5074836;28;20097;-53
2020/12/14 01:58:09;;;;;;;7.20;1.67;;;;;;;8.74;82.44;97802.22;5057355;28;20159;-49
2020/12/14 02:00:36;;;;;;;9.00;1.40;;;;;;;8.72;82.56;97796.31;5083060;28;20089;-50
2020/12/14 02:03:03;;;;;;;5.70;1.27;;;;;;;8.74;82.56;97793.94;5061274;28;20044;-50
2020/12/14 02:05:29;;;;;;;5.70;1.20;;;;;;;8.73;82.44;97803.41;5075553;28;20067;-52
2020/12/14 02:07:56;;;;;;;4.43;1.02;;;;;;;8.72;82.40;97793.56;5075206;28;20437;-51
2020/12/14 02:10:22;;;;;;;6.13;1.23;;;;;;;8.72;82.49;97801.84;5075485;28;20072;-51
2020/12/14 02:12:48;;;;;;;7.13;0.98;;;;;;;8.71;82.32;97812.06;5074613;28;20127;-52
2020/12/14 02:15:15;;;;;;;6.50;2.17;;;;;;;8.70;82.19;97807.75;5075241;28;20075;-49
2020/12/14 02:17:41;;;;;;;9.52;2.47;;;;;;;8.69;82.15;97808.94;5074869;28;20074;-49
2020/12/14 02:20:08;;;;;;;9.18;1.20;;;;;;;8.66;82.11;97818.03;5077512;28;20045;-53
2020/12/14 02:22:34;;;;;;;4.78;1.15;;;;;;;8.65;82.20;97824.75;5065703;28;20063;-51
2020/12/14 02:25:05;;;;;;;5.32;1.15;;;;;;;8.65;82.01;97823.94;5075689;28;20048;-49
2020/12/14 02:27:33;;;;;;;5.93;1.38;;;;;;;8.65;81.98;97824.75;5074710;28;20041;-49
2020/12/14 02:30:01;;;;;;;4.45;1.45;;;;;;;8.62;81.86;97822.78;5076761;28;20124;-49
2020/12/14 02:32:29;;;;;;;5.88;1.60;;;;;;;8.62;82.02;97825.53;5079640;28;20083;-49
2020/12/14 02:34:56;;;;;;;10.73;1.50;;;;;;;8.60;81.87;97833.44;5074900;28;20044;-49
2020/12/14 02:37:26;;;;;;;5.90;1.38;;;;;;;8.57;82.07;97837.00;5057496;28;20111;-48
2020/12/14 02:39:53;;;;;;;12.50;1.60;;;;;;;8.55;81.95;97837.38;5073935;28;20098;-51
2020/12/14 02:42:22;;;;;;;6.50;1.42;;;;;;;8.52;82.00;97837.44;5074202;28;20394;-52
2020/12/14 02:44:48;;;;;;;9.00;2.55;;;;;;;8.50;81.94;97840.56;5074552;28;20071;-50
2020/12/14 02:47:15;;;;;;;10.23;1.40;;;;;;;8.49;81.97;97840.97;5074556;28;20036;-50
2020/12/14 02:49:43;;;;;;;9.38;2.15;;;;;;;8.47;82.01;97840.59;5073758;28;20039;-51
2020/12/14 02:52:11;;;;;;;11.63;1.50;;;;;;;8.46;81.83;97844.53;5074649;28;20064;-50
2020/12/14 02:54:39;;;;;;;13.90;2.88;;;;;;;8.45;81.74;97849.25;5074322;28;20086;-51
2020/12/14 02:57:05;;;;;;;14.77;2.08;;;;;;;8.45;81.85;97848.47;5074997;28;20045;-51
2020/12/14 02:59:32;;;;;;;5.55;1.30;;;;;;;8.44;81.69;97857.94;5073875;28;20098;-50
2020/12/14 03:02:01;;;;;;;11.38;1.63;;;;;;;8.42;81.63;97850.06;5074082;28;20083;-48
2020/12/14 03:04:32;;;;;;;8.85;1.38;;;;;;;8.42;81.81;97858.31;5066986;28;20043;-51
2020/12/14 03:06:59;;;;;;;6.13;1.08;;;;;;;8.44;81.75;97864.25;5059557;28;20072;-50
2020/12/14 03:09:25;;;;;;;5.88;1.10;;;;;;;8.44;81.62;97871.72;5073693;28;20041;-52
2020/12/14 03:11:51;;;;;;;11.90;1.23;;;;;;;8.44;81.52;97864.25;5073523;28;20127;-50
2020/12/14 03:14:18;;;;;;;6.28;1.38;;;;;;;8.44;81.57;97868.97;5057099;28;20044;-52
2020/12/14 03:16:47;;;;;;;7.20;1.40;;;;;;;8.43;81.36;97873.69;5073600;28;20119;-53
2020/12/14 03:19:14;;;;;;;8.75;1.15;;;;;;;8.44;81.55;97874.50;5073281;28;20047;-50
2020/12/14 03:21:40;;;;;;;4.63;1.30;;;;;;;8.43;81.58;97868.19;5073240;28;20555;-50
2020/12/14 03:24:15;;;;;;;8.05;1.50;;;;;;;8.42;81.41;97882.34;5074226;28;20368;-50
2020/12/14 03:26:41;;;;;;;8.45;1.02;;;;;;;8.40;81.55;97876.47;5073175;28;20032;-51
2020/12/14 03:29:08;;;;;;;6.47;1.40;;;;;;;8.37;81.39;97874.50;5072947;28;20072;-52
2020/12/14 03:31:36;;;;;;;6.75;1.25;;;;;;;8.37;81.35;97882.75;5074007;28;20440;-49
2020/12/14 03:34:03;;;;;;;3.95;1.52;;;;;;;8.36;81.43;97875.69;5074091;28;20051;-54
2020/12/14 03:36:29;;;;;;;7.95;1.10;;;;;;;8.36;81.35;97883.97;5073047;28;20037;-49
2020/12/14 03:38:56;;;;;;;11.10;1.35;;;;;;;8.36;81.07;97886.72;5073616;28;20079;-52
2020/12/14 03:41:23;;;;;;;7.78;0.98;;;;;;;8.34;81.32;97883.59;5073387;28;20072;-49
2020/12/14 03:43:51;;;;;;;7.57;0.93;;;;;;;8.33;81.16;97873.75;5073436;28;20505;-48
2020/12/14 03:46:25;;;;;;;10.82;1.45;;;;;;;8.28;81.04;97877.69;5073233;28;20067;-48
2020/12/14 03:48:53;;;;;;;9.65;1.40;;;;;;;8.28;81.09;97872.19;5072743;28;20509;-52
2020/12/14 03:51:21;;;;;;;5.95;2.65;;;;;;;8.27;81.04;97886.34;5073280;28;20037;-51
2020/12/14 03:53:47;;;;;;;6.78;2.95;;;;;;;8.25;80.90;97881.22;5055015;28;20161;-52
2020/12/14 03:56:21;;;;;;;4.13;1.10;;;;;;;8.23;80.82;97880.84;5072903;28;20403;-48
2020/12/14 03:58:50;;;;;;;2.67;0.68;;;;;;;8.21;80.66;97874.13;5055870;28;20055;-52
2020/12/14 04:01:24;;;;;;;12.38;2.95;;;;;;;8.20;80.74;97891.88;5072744;28;20036;-49
2020/12/14 04:03:51;;;;;;;8.63;1.30;;;;;;;8.18;80.75;97892.25;5073565;28;20040;-51
2020/12/14 04:06:22;;;;;;;6.97;1.00;;;;;;;8.19;80.71;97893.03;5073328;28;20481;-52
2020/12/14 04:08:50;;;;;;;10.05;1.35;;;;;;;8.18;80.82;97889.50;5073106;28;20036;-48
2020/12/14 04:11:17;;;;;;;2.95;1.70;;;;;;;8.16;80.61;97883.59;5072126;28;20037;-49
2020/12/14 04:13:43;;;;;;;14.40;1.40;;;;;;;8.14;80.80;97894.25;5055285;28;20080;-48
2020/12/14 04:16:10;;;;;;;3.47;0.60;;;;;;;8.17;80.69;97903.69;5052575;28;20072;-49
2020/12/14 04:18:37;;;;;;;4.40;1.20;;;;;;;8.16;80.81;97900.13;5053082;28;20044;-54
2020/12/14 04:21:04;;;;;;;9.70;1.20;;;;;;;8.16;80.59;97905.66;5051841;28;20442;-50
2020/12/14 04:23:31;;;;;;;4.88;0.60;;;;;;;8.16;80.60;97902.91;5053539;28;20128;-50
2020/12/14 04:25:58;;;;;;;5.50;2.33;;;;;;;8.16;80.51;97913.13;5052617;28;20041;-50
2020/12/14 04:28:25;;;;;;;9.63;1.13;;;;;;;8.17;80.42;97909.19;5052874;28;20045;-50
2020/12/14 04:30:51;;;;;;;5.35;1.35;;;;;;;8.17;80.49;97909.19;5042411;28;20552;-51
2020/12/14 04:33:18;;;;;;;7.18;1.45;;;;;;;8.16;80.44;97910.38;5052881;28;20437;-50
2020/12/14 04:35:44;;;;;;;8.45;1.20;;;;;;;8.16;80.47;97915.88;5035458;28;20554;-49
2020/12/14 04:38:10;;;;;;;6.05;0.93;;;;;;;8.17;80.31;97911.94;5049323;28;20421;-51
2020/12/14 04:40:41;;;;;;;3.58;0.77;;;;;;;8.18;80.26;97919.03;5036354;28;20120;-50
2020/12/14 04:43:14;;;;;;;5.40;1.20;;;;;;;8.20;80.10;97919.44;5052047;28;20047;-50
2020/12/14 04:45:41;;;;;;;4.97;0.80;;;;;;;8.19;80.11;97928.88;5036152;28;20074;-54
2020/12/14 04:48:08;;;;;;;6.07;0.90;;;;;;;8.19;80.07;97932.41;5052302;28;20418;-55
2020/12/14 04:50:35;;;;;;;4.80;1.20;;;;;;;8.19;80.13;97935.16;5052743;28;20064;-49
2020/12/14 04:53:04;;;;;;;3.30;0.75;;;;;;;8.18;79.77;97936.34;5052977;28;20120;-54
2020/12/14 04:55:36;;;;;;;4.03;0.85;;;;;;;8.19;79.58;97921.38;5052065;28;20068;-53
2020/12/14 04:58:04;;;;;;;6.45;1.00;;;;;;;8.21;79.76;97909.97;5052978;28;20041;-53
2020/12/14 05:00:31;;;;;;;10.73;1.25;;;;;;;8.20;79.70;97931.25;5052271;28;20045;-51
2020/12/14 05:02:58;;;;;;;3.88;0.70;;;;;;;8.19;79.67;97934.38;5054370;28;20041;-50
2020/12/14 05:05:24;;;;;;;9.13;1.02;;;;;;;8.19;79.65;97935.16;5038431;28;20095;-52
2020/12/14 05:07:51;;;;;;;3.75;1.10;;;;;;;8.22;79.26;97930.84;5056496;28;20073;-49
2020/12/14 05:10:23;;;;;;;7.10;1.00;;;;;;;8.22;79.21;97928.06;5056137;28;20037;-50
2020/12/14 05:12:49;;;;;;;9.80;1.63;;;;;;;8.19;79.32;97937.13;5065915;28;20059;-48
2020/12/14 05:15:19;;;;;;;6.93;0.88;;;;;;;8.20;79.33;97935.97;5075709;28;20123;-49
2020/12/14 05:17:47;;;;;;;7.10;2.55;;;;;;;8.19;79.34;97935.16;5076916;28;20094;-52
2020/12/14 05:20:18;;;;;;;7.80;1.15;;;;;;;8.20;79.57;97933.22;5078583;28;20114;-50
2020/12/14 05:23:01;;;;;;;13.70;1.80;;;;;;;8.18;79.25;97938.34;5075564;28;20123;-49
2020/12/14 05:25:29;;;;;;;6.20;1.05;;;;;;;8.19;79.54;97945.41;5076268;28;20058;-53
2020/12/14 05:28:14;;;;;;;8.88;1.60;;;;;;;8.16;79.25;97946.19;5075967;28;20047;-52
2020/12/14 05:30:48;;;;;;;8.77;1.20;;;;;;;8.17;79.50;97947.78;5075810;28;20478;-51
2020/12/14 05:33:22;;;;;;;4.38;1.00;;;;;;;8.15;79.56;97952.91;5075809;28;20037;-48
2020/12/14 05:35:48;;;;;;;;;;;;;;;8.12;79.56;97945.44;5075544;28;20072;-49
2020/12/14 05:38:25;;;;;;;5.38;1.38;;;;;;;8.08;79.52;97947.38;5075448;28;20015;-51
2020/12/14 05:40:54;;;;;;;2.60;1.00;;;;;;;8.07;79.69;97954.09;5075940;28;20115;-49
2020/12/14 05:43:23;;;;;;;4.72;1.38;;;;;;;8.06;79.69;97952.50;5057849;28;20071;-51
2020/12/14 05:45:52;;;;;;;5.38;1.20;;;;;;;8.05;79.55;97946.22;5075152;28;20131;-56
2020/12/14 05:48:33;;;;;;;8.27;1.52;;;;;;;8.02;79.36;97949.00;5075887;28;20037;-51
2020/12/14 05:51:04;;;;;;;5.82;0.90;;;;;;;7.99;79.38;97948.56;5075582;28;20567;-49
2020/12/14 05:53:35;;;;;;;3.50;1.20;;;;;;;7.99;79.48;97965.09;5061944;28;20041;-54
2020/12/14 05:56:03;;;;;;;5.55;0.70;;;;;;;7.98;79.47;97958.03;5073641;28;20068;-50
2020/12/14 05:58:31;;;;;;;9.85;1.80;;;;;;;7.99;79.48;97956.09;5075903;28;20047;-51
2020/12/14 06:01:00;;;;;;;5.38;1.13;;;;;;;7.98;79.46;97965.50;5075182;28;20080;-49
2020/12/14 06:03:27;;;;;;;5.82;1.60;;;;;;;7.97;79.62;97961.97;5057892;28;20505;-49
2020/12/14 06:06:02;;;;;;;8.55;2.38;;;;;;;7.96;79.52;97965.91;5074190;28;20087;-50
2020/12/14 06:08:46;;;;;;;6.10;0.90;;;;;;;7.96;79.44;97970.63;5057495;28;20064;-51
2020/12/14 06:11:18;;;;;;;8.93;1.30;;;;;;;7.96;79.48;97981.66;5071447;28;20115;-49
2020/12/14 06:14:05;;;;;;;7.28;1.58;;;;;;;7.94;79.38;97982.03;5073915;28;20395;-50
2020/12/14 06:16:39;;;;;;;3.92;0.88;;;;;;;7.95;79.53;97982.84;5075213;28;20462;-51
2020/12/14 06:19:06;;;;;;;9.98;1.25;;;;;;;7.94;79.18;97990.31;5075422;28;20037;-50
2020/12/14 06:21:39;;;;;;;5.82;0.88;;;;;;;7.93;79.08;97988.75;5074557;28;20075;-48
2020/12/14 06:24:15;;;;;;;10.00;1.23;;;;;;;7.94;79.34;97995.06;5074729;28;20437;-49
2020/12/14 06:26:44;;;;;;;7.13;1.25;;;;;;;7.93;79.19;97999.78;5075424;28;20045;-50
2020/12/14 06:29:27;;;;;;;9.30;1.50;;;;;;;7.93;79.04;97988.75;5074625;28;20040;-49
2020/12/14 06:31:53;;;;;;;4.63;1.02;;;;;;;7.95;78.98;97997.41;5073971;28;20040;-50
2020/12/14 06:34:32;;;;;;;10.02;1.08;;;;;;;7.94;78.74;97995.81;5074285;28;20032;-52
2020/12/14 06:36:59;;;;;;;7.75;1.63;;;;;;;7.95;78.84;98007.63;5059802;28;20049;-48
2020/12/14 06:39:28;;;;;;;6.43;1.30;;;;;;;7.94;78.65;98012.34;5074327;28;20056;-49
2020/12/14 06:42:09;;;;;;;15.35;2.00;;;;;;;7.90;78.79;98008.81;5059719;28;20041;-49
2020/12/14 06:44:56;;;;;;;8.25;1.50;;;;;;;7.92;79.02;98013.91;5074080;28;20067;-52
2020/12/14 06:47:23;;;;;;;7.80;1.73;;;;;;;7.88;79.08;98016.69;5074685;28;20055;-50
2020/12/14 06:49:49;;;;;;;9.40;1.63;;;;;;;7.85;79.00;98019.44;5074510;28;20509;-53
2020/12/14 06:52:42;;;;;;;8.73;1.30;;;;;;;7.80;79.03;98028.88;5073513;28;20110;-49
2020/12/14 06:55:11;;;;;;;12.00;1.83;;;;;;;7.78;79.21;98028.47;5061849;28;20048;-51
2020/12/14 06:57:39;;;;;;;8.73;1.58;;;;;;;7.81;79.13;98035.19;5074828;28;20135;-49
2020/12/14 07:00:07;;;;;;;5.70;1.58;;;;;;;7.77;79.19;98035.19;5074489;28;20475;-52
2020/12/14 07:02:41;;;;;;;5.88;1.40;;;;;;;7.76;79.02;98054.81;5073986;28;20513;-50
2020/12/14 07:05:29;;;;;;;17.02;1.63;;;;;;;7.74;79.07;98049.72;5073824;28;20037;-54
2020/12/14 07:07:56;;;;;;;5.57;1.50;;;;;;;7.74;79.10;98051.69;5074394;28;20068;-49
2020/12/14 07:10:28;;;;;;;8.57;1.60;;;;;;;7.72;79.20;98054.84;5074319;28;20044;-50
2020/12/14 07:12:55;;;;;;;11.50;1.55;;;;;;;7.71;79.23;98057.97;5073059;28;20572;-50
2020/12/14 07:15:40;;;;;;;6.47;2.05;;;;;;;7.68;79.15;98056.00;5077124;28;20044;-49
2020/12/14 07:18:08;;;;;;;12.45;1.55;;;;;;;7.66;79.16;98067.41;5073908;28;20103;-48
2020/12/14 07:20:44;;;;;;;10.40;2.33;;;;;;;7.65;78.90;98065.06;5073956;28;20059;-52
2020/12/14 07:23:14;;;;;;;6.50;1.50;;;;;;;7.67;79.05;98069.00;5074347;28;20413;-49
2020/12/14 07:25:54;;;;;;;12.70;2.50;;;;;;;7.70;79.02;98083.94;5073437;28;20128;-53
2020/12/14 07:28:40;;;;;;;10.75;1.60;;;;;;;7.71;78.83;98088.25;5074157;28;20102;-48
2020/12/14 07:31:12;;;;;;;8.68;1.48;;;;;;;7.71;78.71;98086.31;5073814;28;20107;-51
2020/12/14 07:33:40;;;;;;;6.80;1.45;;;;;;;7.70;78.95;98093.00;5074225;28;20120;-48
2020/12/14 07:36:10;;;;;;;14.52;4.65;;;;;;;7.73;78.88;98092.19;5073466;28;20131;-50
2020/12/14 07:38:44;;;;;;;5.72;1.10;;;;;;;7.75;78.85;98103.63;5074114;28;20119;-51
2020/12/14 07:41:11;;;;;;;6.95;1.15;;;;;;;7.77;78.98;98092.22;5055878;28;20140;-49
2020/12/14 07:43:45;;;;;;;7.15;1.23;;;;;;;7.76;78.78;98101.66;5073482;28;20075;-50
2020/12/14 07:46:38;;;;;;;8.63;1.70;;;;;;;7.75;78.81;98102.84;5073728;28;20087;-48
2020/12/14 07:49:10;;;;;;;5.18;1.00;;;;;;;7.76;78.89;98105.19;5070629;28;20059;-49
2020/12/14 07:51:44;;;;;;;7.30;1.83;;;;;;;7.75;78.84;98111.09;5073484;28;20079;-49
2020/12/14 07:54:13;;;;;;;7.00;0.90;;;;;;;7.73;78.97;98119.75;5072896;28;20118;-50
2020/12/14 07:56:42;;;;;;;4.93;1.30;;;;;;;7.73;78.84;98111.47;5073217;28;20105;-49
2020/12/14 07:59:23;;;;;;;8.00;2.75;;;;;;;7.73;78.61;98113.47;5073540;28;20048;-51
2020/12/14 08:01:50;;;;;;;4.07;1.10;;;;;;;7.74;78.75;98112.28;5072984;28;20436;-50
2020/12/14 08:04:25;;;;;;;8.82;1.23;;;;;;;7.74;78.59;98124.06;5070223;28;20453;-51
2020/12/14 08:06:53;;;;;;;7.07;1.38;;;;;;;7.76;78.59;98116.22;5073914;28;20127;-52
2020/12/14 08:09:23;;;;;;;12.00;1.40;;;;;;;7.77;78.71;98122.50;5073471;28;20079;-49
2020/12/14 08:11:51;;;;;;;8.57;1.67;;;;;;;7.78;78.64;98124.88;5072757;28;20045;-51
2020/12/14 08:14:21;;;;;;;7.65;1.40;;;;;;;7.79;78.67;98123.69;5072629;28;20044;-50
2020/12/14 08:16:48;;;;;;;6.68;1.38;;;;;;;7.79;78.48;98131.97;5072792;28;20135;-50
2020/12/14 08:19:17;;;;;;;8.05;2.67;;;;;;;7.78;78.49;98135.13;5072943;28;20052;-47
2020/12/14 08:22:10;;;;;;;10.90;2.03;;;;;;;7.78;78.39;98135.13;5055110;28;20390;-51
2020/12/14 08:24:38;;;;;;;5.83;0.97;;;;;;;7.79;78.56;98148.47;5072695;28;20440;-48
2020/12/14 08:27:10;;;;;;;4.93;1.30;;;;;;;7.77;78.48;98152.81;5072415;28;20285;-49
2020/12/14 08:29:49;;;;;;;5.85;0.98;;;;;;;7.76;78.07;98154.75;5072877;28;20078;-50
2020/12/14 08:32:16;;;;;;;3.65;0.73;;;;;;;7.77;78.21;98167.38;5072851;28;20124;-48
2020/12/14 08:34:42;;;;;;;4.78;0.65;;;;;;;7.78;78.11;98157.91;5072852;28;20044;-52
2020/12/14 08:37:09;;;;;;;6.22;1.45;;;;;;;7.78;78.09;98168.94;5071971;28;20094;-53
2020/12/14 08:39:35;;;;;;;6.53;1.02;;;;;;;7.76;78.05;98168.53;5072569;28;20071;-49
2020/12/14 08:42:10;;;;;;;4.30;0.93;;;;;;;7.73;78.20;98177.56;5072049;28;20067;-50
2020/12/14 08:44:39;;;;;;;8.00;1.40;;;;;;;7.74;78.11;98179.16;5072489;28;20123;-52
2020/12/14 08:47:16;;;;;;;5.22;1.13;;;;;;;7.72;78.11;98189.78;5072406;28;20036;-51
2020/12/14 08:49:44;;;;;;;5.63;0.68;;;;;;;7.73;78.05;98194.09;5071942;28;20124;-52
2020/12/14 08:52:20;;;;;;;4.88;0.52;;;;;;;7.73;78.08;98193.34;5055547;28;20106;-50
2020/12/14 08:54:55;;;;;;;3.70;1.10;;;;;;;7.74;78.03;98201.19;5058504;28;20553;-51
2020/12/14 08:57:22;;;;;;;4.22;1.08;;;;;;;7.76;77.92;98203.53;5066931;28;20047;-50
2020/12/14 09:00:01;;;;;;;3.80;1.42;;;;;;;7.75;77.83;98197.28;5072449;28;20037;-52
2020/12/14 09:02:30;;;;;;;5.85;1.02;;;;;;;7.76;77.92;98198.03;5063891;28;20048;-49
2020/12/14 09:04:57;;;;;;;3.20;0.70;;;;;;;7.76;77.94;98209.84;5069837;28;20043;-49
2020/12/14 09:07:25;;;;;;;3.88;1.33;;;;;;;7.76;77.93;98198.03;5071068;28;20052;-54
2020/12/14 09:09:52;;;;;;;5.82;0.60;;;;;;;7.75;78.05;98216.56;5069902;28;20032;-51
2020/12/14 09:12:19;;;;;;;4.53;0.57;;;;;;;7.75;77.93;98219.31;5069457;28;20120;-57
2020/12/14 09:14:46;;;;;;;8.48;0.98;;;;;;;7.77;77.98;98221.66;5048291;28;20040;-54
2020/12/14 09:17:18;;;;;;;3.90;0.55;;;;;;;7.77;77.90;98216.16;5047846;28;20148;-52
2020/12/14 09:19:51;;;;;;;5.22;0.65;;;;;;;7.77;77.82;98219.69;5030203;28;20055;-53
2020/12/14 09:22:22;;;;;;;6.82;0.85;;;;;;;7.77;77.81;98222.47;5049428;28;20048;-55
2020/12/14 09:24:49;;;;;;;5.50;0.93;;;;;;;7.80;77.92;98237.41;5048611;28;20064;-54
2020/12/14 09:27:15;;;;;;;5.75;0.82;;;;;;;7.82;77.91;98229.53;5050000;28;20487;-50
2020/12/14 09:29:43;;;;;;;4.18;0.73;;;;;;;7.83;77.91;98242.94;5050322;28;20047;-52
2020/12/14 09:32:11;;;;;;;4.00;0.82;;;;;;;7.84;77.96;98250.00;5049442;28;20041;-52
2020/12/14 09:34:39;;;;;;;4.82;1.75;;;;;;;7.85;77.97;98251.59;5049728;28;20037;-50
2020/12/14 09:37:06;;;;;;;4.75;1.83;;;;;;;7.88;77.80;98252.78;5050580;28;20079;-54
2020/12/14 09:39:34;;;;;;;5.38;0.93;;;;;;;7.88;77.79;98261.06;5031466;28;20095;-51
2020/12/14 09:42:01;;;;;;;7.07;1.10;;;;;;;7.88;77.75;98256.34;5049881;28;20106;-50
2020/12/14 09:44:29;;;;;;;4.47;0.77;;;;;;;7.91;77.63;98263.03;5053993;28;20072;-53
2020/12/14 09:46:58;;;;;;;5.40;0.85;;;;;;;7.93;77.35;98264.22;5049097;28;20052;-50
2020/12/14 09:49:25;;;;;;;5.82;1.27;;;;;;;7.96;77.57;98268.97;5056435;28;20056;-50
2020/12/14 09:51:51;;;;;;;9.00;1.02;;;;;;;7.98;77.43;98257.56;5053591;28;20053;-49
2020/12/14 09:54:20;;;;;;;8.07;1.02;;;;;;;7.97;77.57;98265.03;5045478;28;20103;-51
2020/12/14 09:56:47;;;;;;;4.50;1.00;;;;;;;7.98;77.56;98272.13;5033377;28;20099;-50
2020/12/14 09:59:14;;;;;;;10.15;1.48;;;;;;;7.97;77.58;98273.28;5047221;28;20045;-50
2020/12/14 10:01:40;;;;;;;5.70;0.80;;;;;;;7.98;77.51;98277.63;5047744;28;20449;-51
2020/12/14 10:04:06;;;;;;;7.72;1.13;;;;;;;7.97;77.55;98283.50;5053622;28;20526;-53
2020/12/14 10:06:33;;;;;;;4.13;1.00;;;;;;;7.96;77.55;98284.72;5053216;28;20102;-57
2020/12/14 10:08:59;;;;;;;6.60;1.08;;;;;;;7.94;77.67;98293.34;5052967;28;20445;-50
2020/12/14 10:11:27;;;;;;;3.25;0.90;;;;;;;7.94;77.64;98293.34;5053355;28;20041;-51
2020/12/14 10:13:53;;;;;;;5.93;1.10;;;;;;;7.93;77.69;98302.81;5072330;28;20588;-50
2020/12/14 10:16:21;;;;;;;9.40;1.27;;;;;;;7.94;77.75;98309.88;5073373;28;20106;-48
2020/12/14 10:18:48;;;;;;;4.53;1.30;;;;;;;7.95;77.33;98316.19;5072661;28;20379;-49
2020/12/14 10:21:15;;;;;;;4.32;0.90;;;;;;;7.96;77.59;98310.28;5073603;28;20049;-51
2020/12/14 10:23:42;;;;;;;10.70;1.05;;;;;;;7.97;77.38;98314.63;5049674;28;20086;-53
2020/12/14 10:26:10;;;;;;;6.95;1.40;;;;;;;8.00;77.43;98326.81;5070098;28;20044;-50
2020/12/14 10:28:38;;;;;;;9.77;1.60;;;;;;;8.02;77.46;98321.75;5073841;28;20056;-53
2020/12/14 10:31:06;;;;;;;6.45;0.90;;;;;;;8.04;77.30;98318.59;5071557;28;20094;-50
2020/12/14 10:33:37;;;;;;;5.47;1.05;;;;;;;8.06;77.33;98316.22;5073628;28;20490;-52
2020/12/14 10:36:15;;;;;;;7.65;1.25;;;;;;;8.10;76.54;98317.03;5064828;28;20051;-54
2020/12/14 10:38:41;;;;;;;5.68;1.80;;;;;;;8.17;77.39;98315.09;5055191;28;20041;-49
2020/12/14 10:41:08;;;;;;;7.40;1.20;;;;;;;8.23;77.03;98318.28;5080663;28;20115;-50
2020/12/14 10:43:34;;;;;;;11.70;1.27;;;;;;;8.27;76.82;98316.34;5077674;28;20044;-51
2020/12/14 10:46:00;;;;;;;7.32;1.52;;;;;;;8.33;76.82;98329.38;5072622;28;20505;-54
2020/12/14 10:48:27;;;;;;;10.32;1.38;;;;;;;8.37;76.47;98340.38;5075453;28;20123;-49
2020/12/14 10:50:55;;;;;;;2.53;0.90;;;;;;;8.41;76.75;98332.94;5078318;28;20442;-55
2020/12/14 10:53:21;;;;;;;4.82;1.00;;;;;;;8.44;76.61;98327.44;5072954;28;20036;-52
2020/12/14 10:55:47;;;;;;;8.10;1.52;;;;;;;8.49;76.57;98329.81;5072106;28;20049;-51
2020/12/14 10:58:14;;;;;;;9.15;1.45;;;;;;;8.52;76.32;98336.50;5072923;28;20094;-52
2020/12/14 11:00:41;;;;;;;6.55;1.20;;;;;;;8.55;76.17;98332.97;5071439;28;20502;-53
2020/12/14 11:03:07;;;;;;;4.18;1.52;;;;;;;8.60;76.16;98343.63;5072145;28;20040;-52
2020/12/14 11:05:33;;;;;;;2.58;1.13;;;;;;;8.64;76.00;98347.16;5072457;28;20088;-52
2020/12/14 11:08:00;;;;;;;13.57;1.73;;;;;;;8.71;75.66;98349.16;5071757;28;20094;-52
2020/12/14 11:10:27;;;;;;;8.23;2.60;;;;;;;8.77;75.35;98344.81;5071812;28;20044;-52
2020/12/14 11:12:54;;;;;;;4.38;1.30;;;;;;;8.83;75.58;98343.28;5074045;28;20440;-52
2020/12/14 11:15:20;;;;;;;8.85;1.20;;;;;;;8.87;75.13;98344.84;5078749;28;20525;-54
2020/12/14 11:17:47;;;;;;;7.93;1.48;;;;;;;8.90;74.98;98337.75;5070087;28;20068;-53
2020/12/14 11:20:15;;;;;;;6.15;1.00;;;;;;;8.94;74.93;98344.88;5070677;28;20051;-51
2020/12/14 11:22:42;;;;;;;7.53;1.00;;;;;;;8.99;74.76;98344.47;5054599;28;20521;-52
2020/12/14 11:25:10;;;;;;;8.50;2.15;;;;;;;9.03;74.99;98352.75;5041469;28;20048;-52
2020/12/14 11:27:37;;;;;;;5.80;0.93;;;;;;;9.06;74.09;98357.47;5052004;28;20052;-53
2020/12/14 11:30:06;;;;;;;7.70;1.30;;;;;;;9.10;73.70;98345.28;5071156;28;20056;-52
2020/12/14 11:32:33;;;;;;;8.90;1.83;;;;;;;9.14;74.37;98353.56;5054353;28;20254;-52
2020/12/14 11:34:59;;;;;;;4.85;1.58;;;;;;;9.15;74.30;98353.16;5071775;28;20420;-51
2020/12/14 11:37:27;;;;;;;3.65;1.23;;;;;;;9.19;74.23;98359.47;5071661;28;20045;-53
2020/12/14 11:39:53;;;;;;;6.65;0.93;;;;;;;9.18;74.20;98357.91;5071328;28;20119;-52
2020/12/14 11:42:19;;;;;;;8.55;1.33;;;;;;;9.21;74.26;98359.09;5071367;28;20127;-55
2020/12/14 11:44:46;;;;;;;10.15;2.15;;;;;;;9.22;74.08;98366.19;5070342;28;20086;-49
2020/12/14 11:47:12;;;;;;;4.72;1.30;;;;;;;9.23;74.08;98364.22;5070719;28;20464;-52
2020/12/14 11:49:40;;;;;;;6.78;1.33;;;;;;;9.26;74.13;98363.44;5081874;28;20405;-50